Time;durP1;ratioP1;P1;durP2;ratioP2;P2;SDS_P1;SDS_P2;PMS_P1;PMS_P2;Temp;Humidity;BMP_temperature;BMP_pressure;BME280_temperature;BME280_humidity;BME280_pressure;Samples;Min_cycle;Max_cycle;Signal;HPM_P1;HPM_P2
2021/11/29 00:01:44;;;;;;;;;;;;;;;-1.47;100.00;100272.59;5028065;28;19936;-53
2021/11/29 00:04:12;;;;;;;;;;;;;;;-1.41;100.00;100277.59;5032136;28;19932;-57
2021/11/29 00:06:38;;;;;;;;;;;;;;;-1.47;100.00;100278.63;5029646;28;19928;-57
2021/11/29 00:09:05;;;;;;;;;;;;;;;-1.47;100.00;100283.78;5029797;28;19933;-55
2021/11/29 00:11:32;;;;;;;;;;;;;;;-1.47;100.00;100278.63;5031723;28;19925;-47
2021/11/29 00:13:58;;;;;;;;;;;;;;;-1.41;100.00;100282.78;5047756;28;19976;-56
2021/11/29 00:16:25;;;;;;;;;;;;;;;-1.36;100.00;100292.09;5029567;28;20292;-54
2021/11/29 00:18:52;;;;;;;;;;;;;;;-1.39;100.00;100296.47;5031638;28;19925;-54
2021/11/29 00:21:18;;;;;;;;;;;;;;;-1.39;100.00;100296.47;5033569;28;19925;-56
2021/11/29 00:23:45;;;;;;;;;;;;;;;-1.35;100.00;100300.66;5033362;28;19929;-50
2021/11/29 00:26:13;;;;;;;;;;;;;;;-1.28;100.00;100302.22;5035228;28;20447;-56
2021/11/29 00:28:42;;;;;;;;;;;;;;;-1.25;100.00;100307.31;5051505;28;20011;-55
2021/11/29 00:31:09;;;;;;;;;;;;;;;-1.09;100.00;100294.00;5033548;28;19925;-51
2021/11/29 00:33:35;;;;;;;;;;;;;;;-0.96;100.00;100295.38;5047901;28;20355;-50
2021/11/29 00:36:02;;;;;;;;;;;;;;;-0.95;100.00;100286.75;5034287;28;20506;-51
2021/11/29 00:38:30;;;;;;;;;;;;;;;-0.88;100.00;100287.44;5035598;28;19952;-52
2021/11/29 00:40:57;;;;;;;;;;;;;;;-0.81;100.00;100283.81;5034535;28;20288;-51
2021/11/29 00:43:23;;;;;;;;;;;;;;;-0.73;100.00;100275.88;5035995;28;19995;-56
2021/11/29 00:45:50;;;;;;;;;;;;;;;-0.68;100.00;100276.59;5035856;28;19964;-50
2021/11/29 00:48:17;;;;;;;;;;;;;;;-0.69;100.00;100277.47;5035414;28;20796;-55
2021/11/29 00:50:43;;;;;;;;;;;;;;;-0.69;100.00;100282.63;5033026;28;19925;-56
2021/11/29 00:53:11;;;;;;;;;;;;;;;-0.70;100.00;100280.94;5032679;28;19932;-53
2021/11/29 00:55:38;;;;;;;;;;;;;;;-0.72;100.00;100277.56;5032830;28;19929;-52
2021/11/29 00:58:05;;;;;;;;;;;;;;;-0.67;100.00;100291.19;5048219;28;20381;-53
2021/11/29 01:00:32;;;;;;;;;;;;;;;-0.69;100.00;100285.22;5047773;28;19925;-51
2021/11/29 01:02:59;;;;;;;;;;;;;;;-0.69;100.00;100285.22;5032732;28;19929;-51
2021/11/29 01:05:26;;;;;;;;;;;;;;;-0.70;100.00;100288.69;5031132;28;20327;-50
2021/11/29 01:07:57;;;;;;;;;;;;;;;-0.72;100.00;100288.72;5032216;28;19929;-54
2021/11/29 01:10:28;;;;;;;;;;;;;;;-0.71;100.00;100286.97;5032015;28;19925;-53
2021/11/29 01:12:55;;;;;;;;;;;;;;;-0.73;100.00;100291.34;5034343;28;20028;-56
2021/11/29 01:15:23;;;;;;;;;;;;;;;-0.74;100.00;100289.66;5031426;28;19925;-53
2021/11/29 01:17:49;;;;;;;;;;;;;;;-0.74;100.00;100289.66;5031472;28;20308;-51
2021/11/29 01:20:16;;;;;;;;;;;;;;;-0.73;100.00;100296.53;5031893;28;19925;-53
2021/11/29 01:22:43;;;;;;;;;;;;;;;-0.73;100.00;100292.19;5031328;28;19932;-51
2021/11/29 01:25:10;;;;;;;;;;;;;;;-0.76;100.00;100297.44;5034729;28;19979;-54
2021/11/29 01:27:37;;;;;;;;;;;;;;;-0.75;100.00;100303.44;5050190;28;19952;-53
2021/11/29 01:30:04;;;;;;;;;;;;;;;-0.80;100.00;100295.00;5033346;28;19925;-52
2021/11/29 01:32:31;;;;;;;;;;;;;;;-0.80;100.00;100301.00;5054224;28;19929;-48
2021/11/29 01:34:57;;;;;;;;;;;;;;;-0.78;100.00;100298.38;5038027;28;19928;-53
2021/11/29 01:37:24;;;;;;;;;;;;;;;-0.79;100.00;100304.41;5032661;28;19925;-52
2021/11/29 01:39:51;;;;;;;;;;;;;;;-0.84;100.00;100303.72;5055341;28;19929;-50
2021/11/29 01:42:17;;;;;;;;;;;;;;;-0.81;100.00;100306.22;5065100;28;19991;-50
2021/11/29 01:44:44;;;;;;;;;;;;;;;-0.84;100.00;100316.63;5038348;28;19929;-52
2021/11/29 01:47:10;;;;;;;;;;;;;;;-0.84;100.00;100317.47;5033044;28;20336;-57
2021/11/29 01:49:37;;;;;;;;;;;;;;;-0.86;100.00;100319.22;5041697;28;20979;-52
2021/11/29 01:52:04;;;;;;;;;;;;;;;-0.86;100.00;100317.50;5037126;28;19979;-55
2021/11/29 01:54:31;;;;;;;;;;;;;;;-0.89;100.00;100314.97;5039807;28;19947;-56
2021/11/29 01:56:57;;;;;;;;;;;;;;;-0.89;100.00;100316.72;5039116;28;19929;-53
2021/11/29 01:59:24;;;;;;;;;;;;;;;-0.91;100.00;100315.94;5042188;28;19924;-53
2021/11/29 02:01:50;;;;;;;;;;;;;;;-0.91;100.00;100318.53;5035999;28;20189;-46
2021/11/29 02:04:17;;;;;;;;;;;;;;;-0.89;100.00;100320.16;5044486;28;19925;-55
2021/11/29 02:06:44;;;;;;;;;;;;;;;-0.92;100.00;100322.81;5042688;28;20410;-50
2021/11/29 02:09:11;;;;;;;;;;;;;;;-0.91;100.00;100324.53;5033210;28;20106;-54
2021/11/29 02:11:37;;;;;;;;;;;;;;;-0.89;100.00;100317.56;5039562;28;19929;-54
2021/11/29 02:14:04;;;;;;;;;;;;;;;-0.91;100.00;100321.94;5038860;28;20380;-52
2021/11/29 02:16:31;;;;;;;;;;;;;;;-0.88;100.00;100324.44;5033893;28;19936;-55
2021/11/29 02:18:58;;;;;;;;;;;;;;;-0.91;100.00;100324.53;5034322;28;19926;-49
2021/11/29 02:21:26;;;;;;;;;;;;;;;-0.91;100.00;100327.09;5056424;28;19925;-55
2021/11/29 02:23:54;;;;;;;;;;;;;;;-0.92;100.00;100322.81;5054185;28;20368;-54
2021/11/29 02:26:22;;;;;;;;;;;;;;;-0.92;100.00;100322.81;5030297;28;20387;-55
2021/11/29 02:28:56;;;;;;;;;;;;;;;-0.94;100.00;100314.28;5041221;28;19929;-50
2021/11/29 02:31:24;;;;;;;;;;;;;;;-0.94;100.00;100319.44;5034419;28;19925;-53
2021/11/29 02:33:51;;;;;;;;;;;;;;;-0.93;100.00;100321.13;5033123;28;20019;-52
2021/11/29 02:36:18;;;;;;;;;;;;;;;-0.91;100.00;100329.69;5034858;28;20387;-53
2021/11/29 02:38:45;;;;;;;;;;;;;;;-0.89;100.00;100321.91;5040541;28;19956;-51
2021/11/29 02:41:11;;;;;;;;;;;;;;;-0.90;100.00;100320.19;5030995;28;19929;-50
2021/11/29 02:43:38;;;;;;;;;;;;;;;-0.87;100.00;100320.97;5030532;28;19936;-54
2021/11/29 02:46:05;;;;;;;;;;;;;;;-0.87;100.00;100320.13;5033040;28;19932;-51
2021/11/29 02:48:40;;;;;;;;;;;;;;;-0.89;100.00;100325.31;5034399;28;19929;-55
2021/11/29 02:51:07;;;;;;;;;;;;;;;-0.85;100.00;100328.69;5042671;28;20430;-51
2021/11/29 02:53:34;;;;;;;;;;;;;;;-0.85;100.00;100326.09;5043002;28;19932;-53
2021/11/29 02:56:00;;;;;;;;;;;;;;;-0.90;100.00;100325.34;5050451;28;19933;-56
2021/11/29 02:58:28;;;;;;;;;;;;;;;-0.92;100.00;100333.16;5044875;28;19925;-51
2021/11/29 03:00:54;;;;;;;;;;;;;;;-0.94;100.00;100342.69;5028442;28;19932;-47
2021/11/29 03:03:21;;;;;;;;;;;;;;;-0.94;100.00;100337.50;5030084;28;20684;-53
2021/11/29 03:05:48;;;;;;;;;;;;;;;-0.94;100.00;100332.34;5039506;28;19925;-54
2021/11/29 03:08:15;;;;;;;;;;;;;;;-0.94;100.00;100323.75;5038433;28;19948;-54
2021/11/29 03:10:41;;;;;;;;;;;;;;;-0.93;100.00;100330.59;5035508;28;19929;-46
2021/11/29 03:13:08;;;;;;;;;;;;;;;-0.98;100.00;100330.75;5030299;28;19925;-50
2021/11/29 03:15:34;;;;;;;;;;;;;;;-1.00;100.00;100334.25;5028860;28;19971;-54
2021/11/29 03:18:01;;;;;;;;;;;;;;;-0.99;100.00;100338.53;5036431;28;19932;-55
2021/11/29 03:20:28;;;;;;;;;;;;;;;-1.03;100.00;100330.00;5053003;28;19971;-56
2021/11/29 03:22:54;;;;;;;;;;;;;;;-1.05;100.00;100340.38;5030164;28;20051;-56
2021/11/29 03:25:21;;;;;;;;;;;;;;;-1.06;100.00;100348.16;5031459;28;19925;-52
2021/11/29 03:27:47;;;;;;;;;;;;;;;-1.08;100.00;100344.75;5033061;28;20384;-50
2021/11/29 03:30:14;;;;;;;;;;;;;;;-1.10;100.00;100354.28;5032742;28;19925;-48
2021/11/29 03:32:41;;;;;;;;;;;;;;;-1.13;100.00;100350.03;5036321;28;19932;-53
2021/11/29 03:35:08;;;;;;;;;;;;;;;-1.14;100.00;100347.50;5036407;28;19925;-52
2021/11/29 03:37:35;;;;;;;;;;;;;;;-1.12;100.00;100346.53;5038363;28;20451;-52
2021/11/29 03:40:03;;;;;;;;;;;;;;;-1.11;100.00;100353.41;5052826;28;19933;-51
2021/11/29 03:42:29;;;;;;;;;;;;;;;-1.11;100.00;100355.16;5029322;28;19925;-52
2021/11/29 03:44:57;;;;;;;;;;;;;;;-1.12;100.00;100349.13;5028895;28;19929;-50
2021/11/29 03:47:24;;;;;;;;;;;;;;;-1.11;100.00;100352.56;5028644;28;20042;-50
2021/11/29 03:49:51;;;;;;;;;;;;;;;-1.13;100.00;100356.91;5036545;28;19946;-47
2021/11/29 03:52:17;;;;;;;;;;;;;;;-1.13;100.00;100362.06;5031932;28;19932;-50
2021/11/29 03:54:44;;;;;;;;;;;;;;;-1.11;100.00;100360.31;5039409;28;20320;-49
2021/11/29 03:57:11;;;;;;;;;;;;;;;-1.11;100.00;100371.47;5048075;28;20395;-56
2021/11/29 03:59:38;;;;;;;;;;;;;;;-1.11;100.00;100371.47;5037786;28;19964;-56
2021/11/29 04:02:04;;;;;;;;;;;;;;;-1.12;100.00;100371.53;5043657;28;19979;-54
2021/11/29 04:04:31;;;;;;;;;;;;;;;-1.08;100.00;100365.41;5055815;28;20027;-54
2021/11/29 04:06:58;;;;;;;;;;;;;;;-1.08;100.00;100374.00;5035407;28;20388;-52
2021/11/29 04:09:25;;;;;;;;;;;;;;;-1.06;100.00;100366.22;5037378;28;19933;-52
2021/11/29 04:11:51;;;;;;;;;;;;;;;-1.07;100.00;100375.69;5042939;28;19929;-48
2021/11/29 04:14:18;;;;;;;;;;;;;;;-1.05;100.00;100373.06;5033796;28;19929;-49
2021/11/29 04:16:44;;;;;;;;;;;;;;;-1.07;100.00;100378.25;5038434;28;19928;-54
2021/11/29 04:19:11;;;;;;;;;;;;;;;-1.08;100.00;100376.59;5035111;28;19932;-53
2021/11/29 04:21:38;;;;;;;;;;;;;;;-1.05;100.00;100380.81;5032986;28;19970;-53
2021/11/29 04:24:05;;;;;;;;;;;;;;;-0.97;100.00;100383.22;5048344;28;19983;-53
2021/11/29 04:26:31;;;;;;;;;;;;;;;-0.98;100.00;100384.09;5048628;28;19929;-54
2021/11/29 04:28:59;;;;;;;;;;;;;;;-0.98;100.00;100387.53;5032937;28;20734;-55
2021/11/29 04:31:26;;;;;;;;;;;;;;;-1.00;100.00;100391.88;5032795;28;19940;-55
2021/11/29 04:33:52;;;;;;;;;;;;;;;-0.98;100.00;100402.16;5032641;28;19932;-53
2021/11/29 04:36:19;;;;;;;;;;;;;;;-0.97;100.00;100393.53;5033278;28;19929;-55
2021/11/29 04:38:46;;;;;;;;;;;;;;;-0.97;100.00;100401.28;5032944;28;19929;-54
2021/11/29 04:41:12;;;;;;;;;;;;;;;-0.96;100.00;100395.25;5032192;28;19929;-53
2021/11/29 04:43:39;;;;;;;;;;;;;;;-0.94;100.00;100398.63;5034916;28;20300;-49
2021/11/29 04:46:06;;;;;;;;;;;;;;;-0.93;100.00;100402.91;5031331;28;19931;-48
2021/11/29 04:48:33;;;;;;;;;;;;;;;-0.93;100.00;100401.16;5033389;28;20312;-51
2021/11/29 04:50:59;;;;;;;;;;;;;;;-0.90;100.00;100408.84;5032910;28;19944;-49
2021/11/29 04:53:26;;;;;;;;;;;;;;;-0.93;100.00;100411.47;5032751;28;20342;-52
2021/11/29 04:55:53;;;;;;;;;;;;;;;-0.85;100.00;100400.97;5032725;28;19936;-50
2021/11/29 04:58:19;;;;;;;;;;;;;;;-0.89;100.00;100405.34;5035353;28;19925;-51
2021/11/29 05:00:51;;;;;;;;;;;;;;;-0.90;100.00;100405.41;5030161;28;19932;-54
2021/11/29 05:03:19;;;;;;;;;;;;;;;-0.90;100.00;100400.22;5033803;28;19979;-55
2021/11/29 05:05:45;;;;;;;;;;;;;;;-0.88;100.00;100408.81;5035267;28;19979;-54
2021/11/29 05:08:30;;;;;;;;;;;;;;;-0.82;100.00;100407.81;5035727;28;19932;-54
2021/11/29 05:10:57;;;;;;;;;;;;;;;-0.82;100.00;100407.81;5033972;28;19925;-54
2021/11/29 05:13:23;;;;;;;;;;;;;;;-0.82;100.00;100398.31;5050618;28;19971;-50
2021/11/29 05:15:50;;;;;;;;;;;;;;;-0.80;100.00;100413.78;5032515;28;19925;-47
2021/11/29 05:18:17;;;;;;;;;;;;;;;-0.77;100.00;100409.38;5031801;28;20381;-47
2021/11/29 05:20:44;;;;;;;;;;;;;;;-0.77;100.00;100408.53;5032033;28;20277;-48
2021/11/29 05:23:11;;;;;;;;;;;;;;;-0.79;100.00;100413.75;5032336;28;20388;-53
2021/11/29 05:25:38;;;;;;;;;;;;;;;-0.78;100.00;100412.00;5031939;28;19972;-56
2021/11/29 05:28:05;;;;;;;;;;;;;;;-0.80;100.00;100424.13;5032690;28;20262;-55
2021/11/29 05:30:32;;;;;;;;;;;;;;;-0.82;100.00;100429.28;5035007;28;19925;-49
2021/11/29 05:32:58;;;;;;;;;;;;;;;-0.86;100.00;100425.97;5030828;28;19929;-53
2021/11/29 05:35:25;;;;;;;;;;;;;;;-0.84;100.00;100425.09;5032160;28;19925;-55
2021/11/29 05:37:52;;;;;;;;;;;;;;;-0.87;100.00;100419.09;5030826;28;19952;-55
2021/11/29 05:40:18;;;;;;;;;;;;;;;-0.86;100.00;100422.50;5034432;28;19925;-50
2021/11/29 05:42:46;;;;;;;;;;;;;;;-0.88;100.00;100427.72;5031754;28;19925;-48
2021/11/29 05:45:13;;;;;;;;;;;;;;;-0.91;100.00;100425.22;5046500;28;19925;-46
2021/11/29 05:47:41;;;;;;;;;;;;;;;-0.93;100.00;100424.38;5045948;28;19994;-51
2021/11/29 05:50:08;;;;;;;;;;;;;;;-0.95;100.00;100421.00;5031844;28;19953;-54
2021/11/29 05:52:35;;;;;;;;;;;;;;;-0.95;100.00;100425.34;5048672;28;19929;-54
2021/11/29 05:55:03;;;;;;;;;;;;;;;-0.97;100.00;100430.50;5040456;28;19957;-55
2021/11/29 05:57:35;;;;;;;;;;;;;;;-0.97;100.00;100430.50;5038407;28;19931;-53
2021/11/29 06:00:03;;;;;;;;;;;;;;;-0.96;100.00;100439.97;5040582;28;19933;-55
2021/11/29 06:02:30;;;;;;;;;;;;;;;-0.97;100.00;100437.41;5040225;28;20467;-54
2021/11/29 06:04:57;;;;;;;;;;;;;;;-1.03;100.00;100431.50;5057479;28;19925;-53
2021/11/29 06:07:24;;;;;;;;;;;;;;;-1.02;100.00;100442.72;5036498;28;20467;-53
2021/11/29 06:09:50;;;;;;;;;;;;;;;-1.02;100.00;100440.13;5033423;28;19952;-54
2021/11/29 06:12:17;;;;;;;;;;;;;;;-0.99;100.00;100446.94;5031626;28;20439;-53
2021/11/29 06:14:44;;;;;;;;;;;;;;;-1.02;100.00;100450.44;5038427;28;20539;-54
2021/11/29 06:17:10;;;;;;;;;;;;;;;-1.04;100.00;100449.63;5032940;28;20458;-50
2021/11/29 06:19:37;;;;;;;;;;;;;;;-1.04;100.00;100455.66;5037280;28;19929;-48
2021/11/29 06:22:04;;;;;;;;;;;;;;;-1.04;100.00;100471.16;5040273;28;19929;-50
2021/11/29 06:24:30;;;;;;;;;;;;;;;-0.97;100.00;100463.25;5042269;28;20396;-47
2021/11/29 06:26:57;;;;;;;;;;;;;;;-0.99;100.00;100454.69;5035852;28;19979;-49
2021/11/29 06:29:24;;;;;;;;;;;;;;;-1.00;100.00;100455.56;5034141;28;19975;-51
2021/11/29 06:31:50;;;;;;;;;;;;;;;-1.02;100.00;100458.19;5032455;28;19929;-52
2021/11/29 06:34:17;;;;;;;;;;;;;;;-0.96;100.00;100463.19;5035282;28;20434;-51
2021/11/29 06:36:53;;;;;;;;;;;;;;;-0.95;100.00;100457.16;5083140;27;19946;-53
2021/11/29 06:39:20;;;;;;;;;;;;;;;-0.90;100.00;100455.31;5099109;28;19932;-54
2021/11/29 06:41:47;;;;;;;;;;;;;;;-0.89;100.00;100456.16;5066100;28;19924;-55
2021/11/29 06:44:14;;;;;;;;;;;;;;;-0.88;100.00;100457.88;5065131;28;20003;-54
2021/11/29 06:46:41;;;;;;;;;;;;;;;-0.89;100.00;100446.66;5098495;28;19948;-52
2021/11/29 06:49:08;;;;;;;;;;;;;;;-0.88;100.00;100456.13;5101057;28;19974;-48
2021/11/29 06:51:34;;;;;;;;;;;;;;;-0.85;100.00;100455.19;5065303;28;19978;-52
2021/11/29 06:54:01;;;;;;;;;;;;;;;-0.81;100.00;100456.00;5081783;28;20517;-52
2021/11/29 06:56:28;;;;;;;;;;;;;;;-0.82;100.00;100467.19;5066233;28;19929;-51
2021/11/29 06:58:54;;;;;;;;;;;;;;;-0.74;100.00;100466.09;5097627;28;19929;-47
2021/11/29 07:01:21;;;;;;;;;;;;;;;-0.68;100.00;100465.13;5065245;28;20016;-48
2021/11/29 07:03:50;;;;;;;;;;;;;;;-0.63;100.00;100472.75;5066978;28;19925;-48
2021/11/29 07:06:17;;;;;;;;;;;;;;;-0.61;100.00;100477.00;5066962;28;19929;-53
2021/11/29 07:08:44;;;;;;;;;;;;;;;-0.60;100.00;100475.25;5066682;28;19928;-49
2021/11/29 07:11:10;;;;;;;;;;;;;;;-0.55;100.00;100489.75;5066784;28;20304;-50
2021/11/29 07:13:37;;;;;;;;;;;;;;;-0.53;100.00;100489.75;5099575;28;19924;-50
2021/11/29 07:16:04;;;;;;;;;;;;;;;-0.54;100.00;100496.63;5067712;28;19925;-47
2021/11/29 07:18:31;;;;;;;;;;;;;;;-0.56;100.00;100498.41;5065034;28;19925;-52
2021/11/29 07:20:58;;;;;;;;;;;;;;;-0.53;100.00;100500.09;5098679;28;19932;-53
2021/11/29 07:23:24;;;;;;;;;;;;;;;-0.54;100.00;100499.22;5067531;28;19925;-51
2021/11/29 07:25:51;;;;;;;;;;;;;;;-0.53;100.00;100500.91;5068902;28;19925;-49
2021/11/29 07:28:17;;;;;;;;;;;;;;;-0.50;100.00;100500.00;5067147;28;19978;-55
2021/11/29 07:30:44;;;;;;;;;;;;;;;-0.46;100.00;100500.75;5064996;28;19933;-52
2021/11/29 07:33:11;;;;;;;;;;;;;;;-0.43;100.00;100495.53;5066057;28;20294;-52
2021/11/29 07:35:38;;;;;;;;;;;;;;;-0.40;100.00;100500.63;5065827;28;19931;-54
2021/11/29 07:38:05;;;;;;;;;;;;;;;-0.36;100.00;100503.06;5066179;28;20015;-52
2021/11/29 07:40:31;;;;;;;;;;;;;;;-0.35;100.00;100499.59;5068167;28;19978;-52
2021/11/29 07:42:59;;;;;;;;;;;;;;;-0.32;100.00;100503.00;5066461;28;19929;-52
2021/11/29 07:45:26;;;;;;;;;;;;;;;-0.30;100.00;100507.25;5064983;28;19994;-55
2021/11/29 07:47:53;;;;;;;;;;;;;;;-0.26;100.00;100519.22;5054053;28;19928;-54
2021/11/29 07:50:19;;;;;;;;;;;;;;;-0.23;100.00;100524.31;5085173;28;20296;-55
2021/11/29 07:52:47;;;;;;;;;;;;;;;-0.20;100.00;100529.38;5053598;28;19963;-53
2021/11/29 07:55:16;;;;;;;;;;;;;;;-0.19;100.00;100531.09;5054539;28;20253;-54
2021/11/29 07:57:42;;;;;;;;;;;;;;;-0.15;100.00;100536.16;5085890;28;19935;-55
2021/11/29 08:00:12;;;;;;;;;;;;;;;-0.12;100.00;100530.91;5052121;28;19995;-53
2021/11/29 08:02:38;;;;;;;;;;;;;;;-0.08;100.00;100540.28;5085682;28;20318;-53
2021/11/29 08:05:06;;;;;;;;;;;;;;;0.00;100.00;100540.97;5055083;28;19928;-50
2021/11/29 08:07:32;;;;;;;;;;;;;;;0.01;100.00;100540.06;5054959;28;19932;-49
2021/11/29 08:09:59;;;;;;;;;;;;;;;0.04;100.00;100547.75;5052731;28;19924;-50
2021/11/29 08:12:25;;;;;;;;;;;;;;;0.08;100.00;100559.72;5052237;28;20411;-52
2021/11/29 08:14:54;;;;;;;;;;;;;;;0.12;100.00;100558.75;5053921;28;19929;-55
2021/11/29 08:17:20;;;;;;;;;;;;;;;0.19;100.00;100566.31;5055157;28;19924;-51
2021/11/29 08:19:47;;;;;;;;;;;;;;;0.20;100.00;100566.28;5084538;28;19924;-48
2021/11/29 08:22:14;;;;;;;;;;;;;;;0.27;100.00;100570.44;5050926;28;19929;-47
2021/11/29 08:24:41;;;;;;;;;;;;;;;0.25;100.00;100579.13;5052337;28;19974;-49
2021/11/29 08:27:07;;;;;;;;;;;;;;;0.28;100.00;100586.78;5051657;28;19929;-49
2021/11/29 08:29:34;;;;;;;;;;;;;;;0.30;100.00;100600.50;5051620;28;19929;-50
2021/11/29 08:32:02;;;;;;;;;;;;;;;0.31;100.00;100597.91;5051731;28;19929;-50
2021/11/29 08:34:29;;;;;;;;;;;;;;;0.33;100.00;100598.69;5050983;28;20705;-48
2021/11/29 08:36:56;;;;;;;;;;;;;;;0.37;100.00;100607.25;5050197;28;19928;-49
2021/11/29 08:39:22;;;;;;;;;;;;;;;0.39;100.00;100610.63;5052095;28;19928;-52
2021/11/29 08:41:49;;;;;;;;;;;;;;;0.43;100.00;100617.41;5051673;28;20019;-52
2021/11/29 08:44:15;;;;;;;;;;;;;;;0.46;100.00;100621.66;5050692;28;19925;-53
2021/11/29 08:46:48;;;;;;;;;;;;;;;0.53;100.00;100619.75;5051224;28;19975;-54
2021/11/29 08:49:16;;;;;;;;;;;;;;;0.62;100.00;100620.34;5051289;28;20285;-53
2021/11/29 08:51:42;;;;;;;;;;;;;;;0.90;100.00;100619.59;5066726;28;19925;-48
2021/11/29 08:54:09;;;;;;;;;;;;;;;1.09;100.00;100621.66;5051680;28;19934;-50
2021/11/29 08:56:36;;;;;;;;;;;;;;;1.23;100.00;100623.81;5051089;28;19932;-47
2021/11/29 08:59:03;;;;;;;;;;;;;;;1.39;100.00;100627.69;5050139;28;19925;-54
2021/11/29 09:01:29;;;;;;;;;;;;;;;1.55;100.00;100628.03;5082503;28;19936;-51
2021/11/29 09:03:56;;;;;;;;;;;;;;;1.68;100.00;100634.53;5053328;28;19939;-51
2021/11/29 09:06:23;;;;;;;;;;;;;;;1.82;100.00;100644.47;5051089;28;19925;-52
2021/11/29 09:08:49;;;;;;;;;;;;;;;2.03;100.00;100632.56;5083301;28;19929;-47
2021/11/29 09:11:16;;;;;;;;;;;;;;;2.08;100.00;100632.41;5052721;28;20311;-50
2021/11/29 09:13:44;;;;;;;;;;;;;;;2.22;100.00;100642.31;5051793;28;19929;-56
2021/11/29 09:16:12;;;;;;;;;;;;;;;2.27;100.00;100655.97;5050174;28;19963;-54
2021/11/29 09:18:40;;;;;;;;;;;;;;;2.38;100.00;100653.03;5051864;28;19935;-55
2021/11/29 09:21:07;;;;;;;;;;;;;;;2.60;100.00;100662.69;5049798;28;19924;-51
2021/11/29 09:23:34;;;;;;;;;;;;;;;2.92;100.00;100661.53;5082616;28;20462;-54
2021/11/29 09:26:01;;;;;;;;;;;;;;;3.06;100.00;100671.44;5050529;28;19925;-56
2021/11/29 09:28:28;;;;;;;;;;;;;;;3.09;100.00;100665.28;5050486;28;19925;-54
2021/11/29 09:30:55;;;;;;;;;;;;;;;3.20;100.00;100666.59;5049527;28;19978;-50
2021/11/29 09:33:22;;;;;;;;;;;;;;;3.29;100.00;100673.19;5050366;28;20296;-48
2021/11/29 09:35:49;;;;;;;;;;;;;;;3.48;100.00;100668.13;5081692;28;19931;-54
2021/11/29 09:38:16;;;;;;;;;;;;;;;3.61;100.00;100672.84;5046669;28;19928;-52
2021/11/29 09:40:43;;;;;;;;;;;;;;;3.48;100.00;100675.94;5052071;28;19925;-49
2021/11/29 09:43:11;;;;;;;;;;;;;;;3.68;100.00;100684.69;5050126;28;19925;-53
2021/11/29 09:45:39;;;;;;;;;;;;;;;4.22;100.00;100678.19;5046902;28;19936;-55
2021/11/29 09:48:07;;;;;;;;;;;;;;;4.16;100.00;100685.41;5050744;28;20444;-51
2021/11/29 09:50:35;;;;;;;;;;;;;;;4.07;100.00;100686.66;5085372;28;19929;-51
2021/11/29 09:53:01;;;;;;;;;;;;;;;4.00;100.00;100695.63;5050594;28;19928;-55
2021/11/29 09:55:28;;;;;;;;;;;;;;;3.93;100.00;100702.81;5049204;28;20669;-52
2021/11/29 09:57:55;;;;;;;;;;;;;;;3.96;100.00;100707.88;5049776;28;19932;-48
2021/11/29 10:00:24;;;;;;;;;;;;;;;3.95;100.00;100708.78;5053443;28;19932;-55
2021/11/29 10:02:50;;;;;;;;;;;;;;;4.01;100.00;100707.72;5052937;28;20020;-55
2021/11/29 10:05:18;;;;;;;;;;;;;;;3.88;100.00;100707.34;5051993;28;20323;-54
2021/11/29 10:07:48;;;;;;;;;;;;;;;3.81;100.00;100713.72;5053087;28;19955;-54
2021/11/29 10:10:18;;;;;;;;;;;;;;;3.79;100.00;100721.56;5084311;28;19932;-56
2021/11/29 10:12:48;;;;;;;;;;;;;;;3.78;100.00;100721.63;5053047;28;20035;-51
2021/11/29 10:15:21;;;;;;;;;;;;;;;3.83;100.00;100722.28;5052798;28;19974;-48
2021/11/29 10:17:53;;;;;;;;;;;;;;;3.76;100.00;100724.28;5065471;28;19948;-53
2021/11/29 10:20:32;;;;;;;;;;;;;;;3.71;100.00;100724.47;5078306;28;19983;-52
2021/11/29 10:23:04;;;;;;;;;;;;;;;3.60;100.00;100724.03;5079962;28;19928;-53
2021/11/29 10:25:30;;;;;;;;;;;;;;;3.66;100.00;100733.34;5049785;28;19925;-55
2021/11/29 10:27:57;;;;;;;;;;;;;;;3.75;100.00;100733.00;5051293;28;20276;-50
2021/11/29 10:30:25;;;;;;;;;;;;;;;3.66;100.00;100735.97;5048528;28;19925;-46
2021/11/29 10:32:52;;;;;;;;;;;;;;;3.75;100.00;100740.81;5048548;28;19936;-52
2021/11/29 10:35:38;;;;;;;;;;;;;;;3.81;100.00;100747.53;5048656;28;19929;-49
2021/11/29 10:38:05;;;;;;;;;;;;;;;3.76;100.00;100749.44;5079346;28;19935;-53
2021/11/29 10:40:32;;;;;;;;;;;;;;;3.79;100.00;100749.31;5050426;28;20015;-56
2021/11/29 10:43:05;;;;;;;;;;;;;;;3.89;100.00;100751.53;5052728;28;20305;-54
2021/11/29 10:45:32;;;;;;;;;;;;;;;3.86;100.00;100759.44;5080435;28;19924;-56
2021/11/29 10:48:00;;;;;;;;;;;;;;;3.94;100.00;100758.31;5081024;28;19924;-56
2021/11/29 10:50:27;;;;;;;;;;;;;;;3.98;100.00;100758.13;5047936;28;20628;-56
2021/11/29 10:53:10;;;;;;;;;;;;;;;4.04;100.00;100752.69;5048220;28;19925;-48
2021/11/29 10:55:55;;;;;;;;;;;;;;;4.09;100.00;100759.47;5048286;28;19933;-49
2021/11/29 10:58:22;;;;;;;;;;;;;;;4.01;100.00;100762.38;5047472;28;20640;-48
2021/11/29 11:00:49;;;;;;;;;;;;;;;4.03;100.00;100769.19;5080032;28;19929;-53
2021/11/29 11:03:16;;;;;;;;;;;;;;;4.02;100.00;100761.44;5049594;28;19963;-52
2021/11/29 11:06:01;;;;;;;;;;;;;;;4.01;100.00;100765.81;5051983;28;19925;-53
2021/11/29 11:08:32;;;;;;;;;;;;;;;4.03;100.00;100768.34;5048471;28;20407;-51
2021/11/29 11:10:59;;;;;;;;;;;;;;;4.03;100.00;100763.16;5080783;28;19932;-50
2021/11/29 11:13:25;;;;;;;;;;;;;;;3.88;100.00;100767.19;5047306;28;20428;-54
2021/11/29 11:15:52;;;;;;;;;;;;;;;3.96;100.00;100779.91;5067575;28;19974;-56
2021/11/29 11:18:19;;;;;;;;;;;;;;;3.97;100.00;100766.84;5048668;28;19925;-55
2021/11/29 11:20:48;;;;;;;;;;;;;;;3.97;100.00;100784.22;5046804;28;19932;-52
2021/11/29 11:23:24;;;;;;;;;;;;;;;3.94;100.00;100785.19;5051812;28;19936;-51
2021/11/29 11:25:50;;;;;;;;;;;;;;;3.89;100.00;100785.34;5053669;28;19925;-52
2021/11/29 11:28:17;;;;;;;;;;;;;;;3.86;100.00;100782.03;5054138;28;19928;-50
2021/11/29 11:30:44;;;;;;;;;;;;;;;3.94;100.00;100784.31;5050996;28;19935;-51
2021/11/29 11:33:16;;;;;;;;;;;;;;;3.92;100.00;100791.34;5084057;28;19979;-49
2021/11/29 11:35:44;;;;;;;;;;;;;;;3.91;100.00;100785.28;5051447;28;19932;-52
2021/11/29 11:38:13;;;;;;;;;;;;;;;3.91;100.00;100785.28;5055360;28;20267;-53
2021/11/29 11:40:41;;;;;;;;;;;;;;;3.97;100.00;100795.47;5052002;28;19929;-52
2021/11/29 11:43:08;;;;;;;;;;;;;;;3.98;100.00;100788.50;5084258;28;19925;-50
2021/11/29 11:45:36;;;;;;;;;;;;;;;4.07;100.00;100793.34;5082322;28;19994;-51
2021/11/29 11:48:03;;;;;;;;;;;;;;;4.13;100.00;100792.25;5051459;28;20391;-51
2021/11/29 11:50:33;;;;;;;;;;;;;;;4.13;100.00;100792.25;5055377;28;19925;-52
2021/11/29 11:53:00;;;;;;;;;;;;;;;4.15;100.00;100791.31;5086103;28;19929;-55
2021/11/29 11:55:34;;;;;;;;;;;;;;;4.09;100.00;100788.09;5052401;28;19924;-54
2021/11/29 11:58:02;;;;;;;;;;;;;;;4.16;100.00;100794.75;5053091;28;19929;-55
2021/11/29 12:00:35;;;;;;;;;;;;;;;4.17;100.00;100786.91;5051353;28;19990;-56
2021/11/29 12:03:06;;;;;;;;;;;;;;;4.16;100.00;100782.59;5052309;28;20342;-55
2021/11/29 12:05:35;;;;;;;;;;;;;;;4.13;100.00;100780.13;5052460;28;19925;-53
2021/11/29 12:08:40;;;;;;;;;;;;;;;4.12;100.00;100782.75;5052687;28;19956;-54
2021/11/29 12:11:22;;;;;;;;;;;;;;;4.22;100.00;100782.34;5052302;28;20312;-55
2021/11/29 12:13:49;;;;;;;;;;;;;;;4.26;100.00;100785.69;5052667;28;19925;-51
2021/11/29 12:16:29;;;;;;;;;;;;;;;4.36;100.00;100786.16;5053391;28;19960;-54
2021/11/29 12:18:56;;;;;;;;;;;;;;;4.40;100.00;100787.72;5084312;28;19929;-56
2021/11/29 12:21:24;;;;;;;;;;;;;;;4.49;100.00;100789.13;5052128;28;19971;-53
2021/11/29 12:24:18;;;;;;;;;;;;;;;4.46;100.00;100792.69;5054269;28;19975;-55
2021/11/29 12:26:45;;;;;;;;;;;;;;;4.60;99.92;100793.91;5051805;28;19929;-54
2021/11/29 12:29:21;;;;;;;;;;;;;;;4.57;100.00;100800.91;5051192;28;20384;-51
2021/11/29 12:31:49;;;;;;;;;;;;;;;4.61;100.00;100806.00;5054128;28;20388;-56
2021/11/29 12:34:16;;;;;;;;;;;;;;;4.60;100.00;100804.31;5067300;28;19964;-53